Paro, Bhutan
Current Conditions -  °F | °C
As of 8:50 AM on Saturday 22 Nov 2014 (Local Time) from VQPR Reporting Station
Scattered Clouds Scattered Clouds  
Wind Chill: 45°   Ceiling: Unl
Heat Index: 48°   Visibility: 6mi
Dew Point: 37°   Wind: 7mph
Humidity: 66%   Direction: 180°S
Pressure: 30.18"   Gusts: NA
Location:  27.51°N, 89.36°E
Report Text: VQPR 220250Z 18006KT 9999 SCT040 09/03 Q1022 NOSIG
Loading
Personal Weather Stations






























Interactive Weather Map New forecast layout! Learn more

10-Day Weather Forecast

Advertisements
Track Severe Weather on mobile